This is the latest recevied weather packets stored in our database for station/object EA1IXY-2. If no packets are shown the sender has not sent any weather packets the latest 10 day(s).
| Time | Temp. | Humidity | Pressure | Rain* | Wind** | Luminosity | Snow |
|---|---|---|---|---|---|---|---|
| 1778002293 | 37.78° C | 15% | 928.7 hPa | - | - | - | - |
| 1778001393 | 37.78° C | 16% | 928.8 hPa | - | - | - | - |
| 1778000493 | 37.78° C | 16% | 928.9 hPa | - | - | - | - |
| 1777999593 | 37.78° C | 16% | 928.9 hPa | - | - | - | - |
| 1777998693 | 36.67° C | 16% | 927.7 hPa | - | - | - | - |
| 1777997781 | 37.78° C | 16% | 929 hPa | - | - | - | - |
| 1777996881 | 37.78° C | 16% | 928.9 hPa | - | - | - | - |
| 1777995980 | 37.78° C | 16% | 928.4 hPa | - | - | - | - |
| 1777995080 | 37.78° C | 16% | 928.2 hPa | - | - | - | - |
| 1777994180 | 37.78° C | 16% | 928.4 hPa | - | - | - | - |
| 1777993280 | 38.33° C | 15% | 928.5 hPa | - | - | - | - |
| 1777992380 | 37.78° C | 16% | 928.5 hPa | - | - | - | - |
| 1777991480 | 37.78° C | 15% | 928.7 hPa | - | - | - | - |
| 1777990580 | 36.67° C | 16% | 927.3 hPa | - | - | - | - |
| 1777989680 | 37.78° C | 15% | 928.8 hPa | - | - | - | - |
| 1777988780 | 37.78° C | 16% | 928.8 hPa | - | - | - | - |
| 1777987879 | 36.67° C | 16% | 927.3 hPa | - | - | - | - |
| 1777986967 | 38.33° C | 16% | 928.6 hPa | - | - | - | - |
| 1777986067 | 37.78° C | 16% | 928.5 hPa | - | - | - | - |
| 1777985167 | 37.78° C | 16% | 928.6 hPa | - | - | - | - |
| 1777984267 | 37.78° C | 16% | 928.5 hPa | - | - | - | - |
| 1777983367 | 38.33° C | 16% | 928.9 hPa | - | - | - | - |
| 1777982467 | 37.78° C | 16% | 928.9 hPa | - | - | - | - |
| 1777981567 | 37.78° C | 16% | 929 hPa | - | - | - | - |
| 1777979767 | 37.78° C | 16% | 928.6 hPa | - | - | - | - |
* Rain since midnight (hover to see other rain measurements)
** Current wind speed in m/s (hover to see current wind gust speed)